Terminal Aerodrome Forecast
Issued by NWS

Home | Current Version | Previous Version | Text Only | Print | Product List | Glossary On
Versions: 1 2 3 4 5 6 7 8 9 10 11 12 13 14 15 16 17 18 19 20 21 22 23 24 25 26 27 28 29 30 31 32 33 34 35 36 37 38 39
798
FTUS46 KOTX 261159 CCA
TAFPUW
TAF COR
KPUW 261159Z 2612/2712 17004KT 6SM -RA BR OVC009
     FM261230 22006KT 2SM RA BR SCT005 OVC009
     FM261600 25014G20KT P6SM VCSH BKN018 OVC040
     FM262000 25016G23KT P6SM -SHRA BKN020 OVC050
      TEMPO 2622/2624 3SM SHRA BKN015 OVC030
     FM270100 24018G26KT P6SM VCSH SCT020 BKN040
     FM270500 24018G26KT P6SM SCT020 BKN040=

USA.gov is the U.S. government's official web portal to all federal, state and local government web resources and services.